Airfield :







YOU CAN JOIN US ON...

 
LOGIN :

Register | Disclaimer

   EN    FR    IT 

 









Legend :    VFR   Marginal VFR   IFR   Intensive IFR   Very Intensive IFR
Visi :
Ceiling :
>= 8 km
>= 3000ft
5 to 8 km
1000 to 3000 ft
1500m to 5 km
500 to 1000 ft
800 to 1500m
200 to 500 ft
< 800m
< 200 ft
Symbols :   Thunderstorms  Fog  Heavy snow  Heavy precipitations  Wind > 20 kt






- Airport Elevation : 20 ft
- IATA code : BOS


KBOS - General Edward Lawrence Logan International

CURRENT METAR :
  • 071454Z 26013G19KT 10SM FEW035 SCT160 33/22 A3011 RMK AO2 SLP197 T03280217 58004

EXPIRED METARs :
  • 071354Z 24010KT 10SM FEW030 SCT160 31/22 A3012 RMK AO2 SLP198 T03110222
  • 071254Z 23014G21KT 10SM FEW025 SCT160 29/23 A3013 RMK AO2 SLP202 T02890228

TAF KBOS
Valid from the 07 at 15:00 until the 08 at 18:00 UTC


071450Z 0715/0818 23009KT P6SM FEW050 SCT200
FM071600 23011G20KT P6SM SCT070
FM072100 23012G22KT P6SM BKN050
FM080300 23009KT P6SM SCT080
FM081400 24008KT P6SM SCT250
KZBW FIR / North America



MET'MAP, your aeronautical weather chart ! - Copyright ORBIFLY December 2007 - Disclaimer

ORBIFLY MET'MAP TEAM :

Programming & Development : Alexandra Zaïnal
Original concept : Baudouin d'Aumeries
Technical & hardware support : Manuel Goepfert
Assistance : Marc-Olivier Méhu




SOURCES & CREDITS :

   NOAA